Time;durP1;ratioP1;P1;durP2;ratioP2;P2;SDS_P1;SDS_P2;PMS_P1;PMS_P2;Temp;Humidity;BMP_temperature;BMP_pressure;BME280_temperature;BME280_humidity;BME280_pressure;Samples;Min_cycle;Max_cycle;Signal;HPM_P1;HPM_P2
2022/07/30 00:02:09;;;;;;;24.30;12.10;;;18.10;99.90;;;;;;5090350;28;20235;-88
2022/07/30 00:04:36;;;;;;;24.27;13.40;;;18.10;99.90;;;;;;5085474;28;20235;-86
2022/07/30 00:07:03;;;;;;;21.00;11.30;;;18.10;99.90;;;;;;5086780;28;20203;-86
2022/07/30 00:09:31;;;;;;;20.13;12.23;;;18.10;99.90;;;;;;5090448;28;20207;-87
2022/07/30 00:12:05;;;;;;;23.83;14.23;;;18.00;99.90;;;;;;5083405;28;20368;-85
2022/07/30 00:14:33;;;;;;;25.50;14.43;;;18.00;99.90;;;;;;5077725;28;20640;-85
2022/07/30 00:17:02;;;;;;;25.47;13.40;;;18.00;99.90;;;;;;5086548;28;21059;-87
2022/07/30 00:19:30;;;;;;;20.10;13.00;;;18.00;99.90;;;;;;5088903;28;20232;-87
2022/07/30 00:21:57;;;;;;;23.53;12.87;;;17.90;99.90;;;;;;5096868;28;20220;-86
2022/07/30 00:24:25;;;;;;;24.97;14.20;;;17.90;99.90;;;;;;5089934;28;20649;-88
2022/07/30 00:27:02;;;;;;;20.57;12.30;;;17.90;99.90;;;;;;5088189;28;20325;-87
2022/07/30 00:29:30;;;;;;;21.50;12.47;;;17.90;99.90;;;;;;5083427;28;20573;-86
2022/07/30 00:31:57;;;;;;;22.87;13.50;;;17.80;99.90;;;;;;5090409;28;20227;-87
2022/07/30 00:34:25;;;;;;;23.03;14.40;;;17.80;99.90;;;;;;5091373;28;20192;-87
2022/07/30 00:36:52;;;;;;;23.57;12.30;;;17.80;99.90;;;;;;5101186;28;20238;-87
2022/07/30 00:39:19;;;;;;;22.33;13.30;;;17.80;99.90;;;;;;5097977;28;20266;-87
2022/07/30 00:42:00;;;;;;;22.00;12.30;;;17.70;99.90;;;;;;5097844;28;20218;-87
2022/07/30 00:44:30;;;;;;;24.80;14.03;;;17.70;99.90;;;;;;5088985;28;20228;-86
2022/07/30 00:46:57;;;;;;;23.60;13.53;;;17.70;99.90;;;;;;5082015;28;20257;-87
2022/07/30 00:49:27;;;;;;;20.43;12.37;;;17.70;99.90;;;;;;5079038;28;20291;-87
2022/07/30 00:52:00;;;;;;;19.83;13.50;;;17.60;99.90;;;;;;5092000;28;20239;-87
2022/07/30 00:54:27;;;;;;;20.70;13.33;;;17.60;99.90;;;;;;5100450;28;20604;-87
2022/07/30 00:56:54;;;;;;;22.70;13.40;;;17.60;99.90;;;;;;5090465;28;20204;-87
2022/07/30 00:59:21;;;;;;;22.47;11.60;;;17.60;99.90;;;;;;5083352;28;20227;-89
2022/07/30 01:01:49;;;;;;;21.43;12.37;;;17.60;99.90;;;;;;5089521;28;20211;-87
2022/07/30 01:04:18;;;;;;;20.33;11.33;;;17.60;99.90;;;;;;5087941;28;20227;-87
2022/07/30 01:06:45;;;;;;;18.90;13.17;;;17.70;99.90;;;;;;5052422;28;20200;-87
2022/07/30 01:09:12;;;;;;;23.17;13.77;;;17.60;99.90;;;;;;5071518;28;20208;-86
2022/07/30 01:11:41;;;;;;;19.77;12.23;;;17.60;99.90;;;;;;5055238;28;20261;-86
2022/07/30 01:14:09;;;;;;;20.73;12.07;;;17.60;99.90;;;;;;5068244;28;20209;-87
2022/07/30 01:16:38;;;;;;;24.67;12.77;;;17.60;99.90;;;;;;5059122;28;20247;-87
2022/07/30 01:22:08;;;;;;;19.87;12.53;;;17.50;99.90;;;;;;5075465;28;20200;-87
2022/07/30 01:24:50;;;;;;;20.47;11.70;;;17.50;99.90;;;;;;5049605;28;20209;-86
2022/07/30 01:27:19;;;;;;;23.37;12.97;;;17.60;99.90;;;;;;5049749;28;20568;-86
2022/07/30 01:29:48;;;;;;;31.20;13.83;;;17.50;99.90;;;;;;5051654;28;20213;-86
2022/07/30 01:32:18;;;;;;;20.47;13.77;;;17.40;99.90;;;;;;5065721;28;20232;-86
2022/07/30 01:34:56;;;;;;;18.97;11.70;;;17.50;99.90;;;;;;5051730;28;20208;-86
2022/07/30 01:37:24;;;;;;;18.47;12.07;;;17.40;99.90;;;;;;5050685;28;20212;-87
2022/07/30 01:39:52;;;;;;;22.17;12.87;;;17.40;99.90;;;;;;5068083;28;20212;-87
2022/07/30 01:42:25;;;;;;;22.77;14.00;;;17.40;99.90;;;;;;5049302;28;20674;-87
2022/07/30 01:44:53;;;;;;;24.80;14.27;;;17.40;99.90;;;;;;5047981;28;20208;-88
2022/07/30 01:47:22;;;;;;;22.43;12.87;;;17.30;99.90;;;;;;5069487;28;20224;-87
2022/07/30 01:49:53;;;;;;;21.70;14.27;;;17.30;99.90;;;;;;5052075;28;20200;-87
2022/07/30 01:52:23;;;;;;;19.77;13.37;;;17.30;99.90;;;;;;5051751;28;20672;-85
2022/07/30 01:54:53;;;;;;;21.53;14.50;;;17.30;99.90;;;;;;5066459;28;20197;-87
2022/07/30 01:57:20;;;;;;;24.93;13.90;;;17.40;99.90;;;;;;5051348;28;20250;-87
2022/07/30 01:59:50;;;;;;;22.17;13.27;;;17.30;99.90;;;;;;5062800;28;20315;-86
2022/07/30 02:02:18;;;;;;;22.27;14.37;;;17.20;99.90;;;;;;5050016;28;20939;-85
2022/07/30 02:04:45;;;;;;;25.83;13.63;;;17.20;99.90;;;;;;5052524;28;20228;-87
2022/07/30 02:07:18;;;;;;;26.03;14.23;;;17.20;99.90;;;;;;5083342;28;20218;-87
2022/07/30 02:10:13;;;;;;;24.77;13.93;;;17.20;99.90;;;;;;5085657;28;20200;-86
2022/07/30 02:12:52;;;;;;;22.07;13.50;;;17.20;99.90;;;;;;5077598;28;20824;-88
2022/07/30 02:15:48;;;;;;;19.87;12.60;;;17.20;99.90;;;;;;5076466;28;20653;-88
2022/07/30 02:18:27;;;;;;;26.43;15.27;;;17.10;99.90;;;;;;5082788;28;20224;-86
2022/07/30 02:21:07;;;;;;;19.77;13.57;;;17.00;99.90;;;;;;5082353;28;20204;-87
2022/07/30 02:23:44;;;;;;;23.97;13.57;;;17.10;99.90;;;;;;5080551;28;20555;-87
2022/07/30 02:26:17;;;;;;;26.03;14.73;;;17.10;99.90;;;;;;5078988;28;20210;-85
2022/07/30 02:28:48;;;;;;;22.90;14.03;;;17.10;99.90;;;;;;5077133;28;20644;-87
2022/07/30 02:31:19;;;;;;;22.53;14.07;;;17.00;99.90;;;;;;5080902;28;20200;-87
2022/07/30 02:33:49;;;;;;;25.27;16.47;;;17.00;99.90;;;;;;5084949;28;20235;-89
2022/07/30 02:36:18;;;;;;;28.70;15.77;;;17.00;99.90;;;;;;5083849;28;20273;-86
2022/07/30 02:38:49;;;;;;;24.63;15.23;;;17.10;99.90;;;;;;5087188;28;20259;-87
2022/07/30 02:41:22;;;;;;;29.97;15.40;;;17.00;99.90;;;;;;5082906;28;20283;-88
2022/07/30 02:43:52;;;;;;;27.10;14.40;;;16.90;99.90;;;;;;5076864;28;20212;-87
2022/07/30 02:46:22;;;;;;;26.07;15.07;;;17.00;99.90;;;;;;5082279;28;20207;-88
2022/07/30 02:48:52;;;;;;;24.87;13.63;;;17.00;99.90;;;;;;5083827;28;20226;-86
2022/07/30 02:51:20;;;;;;;22.13;12.93;;;17.00;99.90;;;;;;5093995;28;20276;-86
2022/07/30 02:53:49;;;;;;;21.23;14.13;;;16.90;99.90;;;;;;5092814;28;20680;-87
2022/07/30 02:56:19;;;;;;;23.33;14.93;;;16.90;99.90;;;;;;5089655;28;20200;-86
2022/07/30 02:58:48;;;;;;;21.53;13.63;;;16.90;99.90;;;;;;5083090;28;20224;-87
2022/07/30 03:01:18;;;;;;;21.47;14.20;;;16.90;99.90;;;;;;5088536;28;20205;-87
2022/07/30 03:03:47;;;;;;;26.77;14.67;;;16.80;99.90;;;;;;5088033;28;20216;-86
2022/07/30 03:06:15;;;;;;;17.17;12.67;;;16.90;99.90;;;;;;5098195;28;20208;-87
2022/07/30 03:08:44;;;;;;;23.80;14.30;;;16.80;99.90;;;;;;5114405;28;20267;-87
2022/07/30 03:11:17;;;;;;;24.57;15.20;;;16.80;99.90;;;;;;5110128;28;20203;-87
2022/07/30 03:13:51;;;;;;;26.13;14.73;;;16.80;99.90;;;;;;5102011;28;20288;-86
2022/07/30 03:16:25;;;;;;;28.57;15.47;;;16.80;99.90;;;;;;5089263;28;20212;-88
2022/07/30 03:18:55;;;;;;;22.77;14.07;;;16.80;99.90;;;;;;5081164;28;20227;-85
2022/07/30 03:21:25;;;;;;;25.67;15.17;;;16.80;99.90;;;;;;5089635;28;20247;-86
2022/07/30 03:23:57;;;;;;;22.33;14.17;;;16.70;99.90;;;;;;5092502;28;20211;-88
2022/07/30 03:26:25;;;;;;;26.47;15.70;;;16.70;99.90;;;;;;5092558;28;20231;-88
2022/07/30 03:28:53;;;;;;;23.23;15.10;;;16.70;99.90;;;;;;5085058;28;20192;-87
2022/07/30 03:31:21;;;;;;;25.73;15.97;;;16.70;99.90;;;;;;5088111;28;20211;-87
2022/07/30 03:33:58;;;;;;;29.80;16.47;;;16.70;99.90;;;;;;5091110;28;20310;-86
2022/07/30 03:36:29;;;;;;;25.63;15.33;;;16.70;99.90;;;;;;5089952;28;20251;-87
2022/07/30 03:38:57;;;;;;;25.83;14.93;;;16.60;99.90;;;;;;5084797;28;20283;-88
2022/07/30 03:41:24;;;;;;;25.07;15.67;;;16.60;99.90;;;;;;5091650;28;20218;-88
2022/07/30 03:43:53;;;;;;;24.30;15.33;;;16.60;99.90;;;;;;5079012;28;20617;-88
2022/07/30 03:46:21;;;;;;;24.90;16.57;;;16.60;99.90;;;;;;5074312;28;20268;-87
2022/07/30 03:48:49;;;;;;;21.83;15.13;;;16.60;99.90;;;;;;5088904;28;20212;-86
2022/07/30 03:51:20;;;;;;;22.43;14.27;;;16.60;99.90;;;;;;5087809;28;20672;-86
2022/07/30 03:53:50;;;;;;;22.90;16.10;;;16.50;99.90;;;;;;5080437;28;20220;-86
2022/07/30 03:56:17;;;;;;;26.73;15.07;;;16.50;99.90;;;;;;5090993;28;20203;-86
2022/07/30 03:58:45;;;;;;;23.80;15.40;;;16.50;99.90;;;;;;5085914;28;20230;-86
2022/07/30 04:01:12;;;;;;;21.63;13.80;;;16.60;99.90;;;;;;5084845;28;20670;-87
2022/07/30 04:03:41;;;;;;;22.77;14.63;;;16.50;99.90;;;;;;5086582;28;20750;-87
2022/07/30 04:06:08;;;;;;;22.90;15.17;;;16.50;99.90;;;;;;5073976;28;20323;-87
2022/07/30 04:08:34;;;;;;;23.43;16.27;;;16.50;99.90;;;;;;5081527;28;20193;-87
2022/07/30 04:11:02;;;;;;;22.17;13.83;;;16.50;99.90;;;;;;5084740;28;20295;-87
2022/07/30 04:13:29;;;;;;;22.07;14.33;;;16.50;99.90;;;;;;5086788;28;20227;-87
2022/07/30 04:16:10;;;;;;;30.00;15.40;;;16.50;99.90;;;;;;5076781;28;20656;-87
2022/07/30 04:19:05;;;;;;;23.97;13.77;;;16.50;99.90;;;;;;5086645;28;20241;-86
2022/07/30 04:21:33;;;;;;;19.53;14.17;;;16.40;99.90;;;;;;5083415;28;20603;-87
2022/07/30 04:24:00;;;;;;;23.17;13.80;;;16.50;99.90;;;;;;5083431;28;20216;-88
2022/07/30 04:26:34;;;;;;;23.60;14.97;;;16.50;99.90;;;;;;5085770;28;20261;-87
2022/07/30 04:29:04;;;;;;;24.40;15.90;;;16.50;99.90;;;;;;5078620;28;20236;-88
2022/07/30 04:31:34;;;;;;;20.37;13.73;;;16.50;99.90;;;;;;5077323;28;20192;-87
2022/07/30 04:34:09;;;;;;;19.37;13.73;;;16.60;99.90;;;;;;5075710;28;20592;-87
2022/07/30 04:36:37;;;;;;;18.33;12.50;;;16.60;99.90;;;;;;5085907;28;20211;-87
2022/07/30 04:39:05;;;;;;;22.43;12.47;;;16.60;99.90;;;;;;5091118;28;20200;-86
2022/07/30 04:41:44;;;;;;;25.53;13.27;;;16.60;99.90;;;;;;5081253;28;20196;-89
2022/07/30 04:44:15;;;;;;;22.50;13.33;;;16.70;99.90;;;;;;5083291;28;20671;-86
2022/07/30 04:46:42;;;;;;;21.00;13.53;;;16.70;99.90;;;;;;5078834;28;20207;-86
2022/07/30 04:49:11;;;;;;;18.97;13.50;;;16.70;99.90;;;;;;5085732;28;20212;-86
2022/07/30 04:51:42;;;;;;;20.10;12.60;;;16.70;99.90;;;;;;5096401;28;20226;-85
2022/07/30 04:54:12;;;;;;;16.57;12.53;;;16.60;99.90;;;;;;5102698;28;20566;-84
2022/07/30 04:56:44;;;;;;;20.27;11.73;;;16.70;99.90;;;;;;5086893;28;20196;-85
2022/07/30 04:59:28;;;;;;;18.13;12.80;;;16.70;99.90;;;;;;5076205;28;20299;-85
2022/07/30 05:02:03;;;;;;;17.33;11.93;;;16.70;99.90;;;;;;5078168;28;20575;-84
2022/07/30 05:04:34;;;;;;;17.73;11.43;;;16.70;99.90;;;;;;5091926;28;20247;-86
2022/07/30 05:07:02;;;;;;;17.63;11.83;;;16.80;99.90;;;;;;5082365;28;20199;-84
2022/07/30 05:09:30;;;;;;;15.13;10.93;;;16.80;99.90;;;;;;5074736;28;20211;-83
2022/07/30 05:11:58;;;;;;;18.43;11.57;;;16.80;99.90;;;;;;5074950;28;20704;-83
2022/07/30 05:14:25;;;;;;;19.30;11.60;;;16.80;99.90;;;;;;5075654;28;20240;-83
2022/07/30 05:16:53;;;;;;;14.03;10.80;;;16.90;99.90;;;;;;5085539;28;20304;-85
2022/07/30 05:19:21;;;;;;;17.50;11.10;;;16.90;99.90;;;;;;5079527;28;20204;-84
2022/07/30 05:21:48;;;;;;;14.13;9.73;;;17.00;99.90;;;;;;5077791;28;20257;-84
2022/07/30 05:24:14;;;;;;;16.53;10.13;;;17.00;99.90;;;;;;5072562;28;20361;-85
2022/07/30 05:26:42;;;;;;;12.63;9.23;;;17.10;99.90;;;;;;5081324;28;20203;-82
2022/07/30 05:29:09;;;;;;;16.57;10.10;;;17.10;99.90;;;;;;5083376;28;20199;-84
2022/07/30 05:31:46;;;;;;;15.20;10.40;;;17.10;99.90;;;;;;5080038;28;20218;-83
2022/07/30 05:34:15;;;;;;;15.93;10.47;;;17.20;99.90;;;;;;5079328;28;20232;-87
2022/07/30 05:36:43;;;;;;;16.07;10.20;;;17.20;99.90;;;;;;5074766;28;20665;-83
2022/07/30 05:39:12;;;;;;;16.93;11.73;;;17.30;99.90;;;;;;5081013;28;20200;-83
2022/07/30 05:41:39;;;;;;;17.40;10.53;;;17.40;99.90;;;;;;5074494;28;20212;-84
2022/07/30 05:44:06;;;;;;;14.53;10.23;;;17.40;99.90;;;;;;5085141;28;20222;-83
2022/07/30 05:46:33;;;;;;;11.73;9.18;;;17.50;99.90;;;;;;5086558;28;20245;-84
2022/07/30 05:49:00;;;;;;;12.65;9.43;;;17.60;99.90;;;;;;5074441;28;20216;-86
2022/07/30 05:51:28;;;;;;;14.10;9.40;;;17.60;99.90;;;;;;5094010;28;20199;-85
2022/07/30 05:53:55;;;;;;;13.02;8.05;;;17.70;99.90;;;;;;5093353;28;20233;-85
2022/07/30 05:56:24;;;;;;;9.05;7.20;;;;;;;;;;5094271;28;20200;-84
2022/07/30 05:58:51;;;;;;;13.25;6.55;;;19.30;99.90;;;;;;5104554;28;20214;-84
2022/07/30 06:01:22;;;;;;;10.57;5.90;;;20.40;99.90;;;;;;5102097;28;20195;-86
2022/07/30 06:03:49;;;;;;;9.40;6.43;;;21.40;99.90;;;;;;5093064;28;20216;-89
2022/07/30 06:06:16;;;;;;;7.90;5.47;;;22.50;99.90;;;;;;5104162;28;20236;-85
2022/07/30 06:09:06;;;;;;;9.27;5.03;;;23.40;99.90;;;;;;5100333;28;20219;-84
2022/07/30 06:11:40;;;;;;;9.20;4.85;;;;;;;;;;5089196;28;20189;-84
2022/07/30 06:14:09;;;;;;;6.65;5.18;;;24.90;99.90;;;;;;5076572;28;20227;-87
2022/07/30 06:16:46;;;;;;;8.82;5.13;;;25.50;99.90;;;;;;5071178;28;20208;-86
2022/07/30 06:19:13;;;;;;;9.98;5.65;;;25.90;99.90;;;;;;5070370;28;20299;-84
2022/07/30 06:21:45;;;;;;;8.02;4.30;;;26.50;99.90;;;;;;5091356;28;20573;-83
2022/07/30 06:24:32;;;;;;;6.30;3.88;;;27.00;99.90;;;;;;5090544;28;20275;-83
2022/07/30 06:27:03;;;;;;;6.68;4.05;;;;;;;;;;5091447;28;20765;-86
2022/07/30 06:29:31;;;;;;;7.80;3.65;;;27.90;99.90;;;;;;5078835;28;20203;-84
2022/07/30 06:31:58;;;;;;;6.40;4.03;;;28.20;99.90;;;;;;5093048;28;20207;-84
2022/07/30 06:34:25;;;;;;;9.10;4.38;;;28.30;99.90;;;;;;5080983;28;20281;-88
2022/07/30 06:36:54;;;;;;;5.20;3.28;;;28.20;99.90;;;;;;5082167;28;20207;-86
2022/07/30 06:39:23;;;;;;;4.90;3.38;;;28.30;99.90;;;;;;5089346;28;20208;-90
2022/07/30 06:42:20;;;;;;;9.73;4.22;;;28.30;99.90;;;;;;5085315;28;20217;-89
2022/07/30 06:44:52;;;;;;;3.63;3.22;;;28.00;99.90;;;;;;5096367;28;20222;-89
2022/07/30 06:47:27;;;;;;;7.03;3.30;;;28.00;99.90;;;;;;5096560;28;20191;-90
2022/07/30 06:50:03;;;;;;;8.88;3.55;;;27.90;99.90;;;;;;5092686;28;20219;-90
2022/07/30 06:52:39;;;;;;;5.30;3.22;;;27.80;99.90;;;;;;5097200;28;20195;-90
2022/07/30 06:55:10;;;;;;;6.88;3.30;;;27.60;99.90;;;;;;5089763;28;20204;-91
2022/07/30 06:57:45;;;;;;;6.28;3.22;;;27.60;99.90;;;;;;5092641;28;20196;-91
2022/07/30 07:00:19;;;;;;;4.25;2.75;;;27.90;99.90;;;;;;5093365;28;20211;-88
2022/07/30 07:02:57;;;;;;;5.32;3.00;;;28.20;99.90;;;;;;5083838;28;20220;-91
2022/07/30 07:05:27;;;;;;;7.90;2.85;;;28.70;99.90;;;;;;5075846;28;20642;-91
2022/07/30 07:08:13;;;;;;;7.50;3.03;;;29.20;99.90;;;;;;5076498;28;20620;-90
2022/07/30 07:10:43;;;;;;;6.75;2.70;;;29.50;99.90;;;;;;5077363;28;20299;-90
2022/07/30 07:13:10;;;;;;;5.28;3.28;;;29.70;99.90;;;;;;5086564;28;20224;-90
2022/07/30 07:15:39;;;;;;;6.97;3.40;;;29.90;99.90;;;;;;5080001;28;20250;-89
2022/07/30 07:18:08;;;;;;;6.70;3.28;;;30.00;99.90;;;;;;5077653;28;20338;-91
2022/07/30 07:20:39;;;;;;;5.25;2.60;;;30.10;99.90;;;;;;5084963;28;20203;-88
2022/07/30 07:23:08;;;;;;;6.93;2.95;;;30.10;99.90;;;;;;5088387;28;20290;-88
2022/07/30 07:25:42;;;;;;;6.40;2.63;;;30.20;99.90;;;;;;5085770;28;20218;-89
2022/07/30 07:28:09;;;;;;;7.45;2.90;;;30.40;99.90;;;;;;5088754;28;20226;-89
2022/07/30 07:30:42;;;;;;;5.95;2.70;;;30.40;99.90;;;;;;5087600;28;20287;-88
2022/07/30 07:33:09;;;;;;;6.13;2.45;;;30.10;99.90;;;;;;5078472;28;20652;-88
2022/07/30 07:35:39;;;;;;;6.78;2.25;;;29.60;99.90;;;;;;5082223;28;20212;-90
2022/07/30 07:38:17;;;;;;;4.97;2.10;;;29.30;99.90;;;;;;5080599;28;20223;-91
2022/07/30 07:40:46;;;;;;;4.40;1.52;;;29.40;99.90;;;;;;5083314;28;20221;-88
2022/07/30 07:43:14;;;;;;;4.53;2.17;;;29.60;99.80;;;;;;5084794;28;20204;-89
2022/07/30 07:45:46;;;;;;;4.10;2.30;;;29.90;99.70;;;;;;5094309;28;20204;-91
2022/07/30 07:48:33;;;;;;;6.85;2.30;;;30.10;98.60;;;;;;5087522;28;20211;-87
2022/07/30 07:51:03;;;;;;;8.63;2.33;;;30.20;98.20;;;;;;5082298;28;20205;-89
2022/07/30 07:53:35;;;;;;;5.50;2.65;;;30.20;98.00;;;;;;5082408;28;20227;-89
2022/07/30 07:56:09;;;;;;;4.57;2.30;;;30.30;97.20;;;;;;5083895;28;20232;-89
2022/07/30 07:58:39;;;;;;;3.78;2.22;;;30.40;96.50;;;;;;5077544;28;20599;-90
2022/07/30 08:01:10;;;;;;;6.38;2.60;;;30.40;96.20;;;;;;5084193;28;20215;-90
2022/07/30 08:03:44;;;;;;;5.03;2.25;;;30.30;96.10;;;;;;5097471;28;20219;-92
2022/07/30 08:06:17;;;;;;;4.57;2.00;;;30.40;96.10;;;;;;5106740;28;20229;-90
2022/07/30 08:09:01;;;;;;;5.30;2.33;;;30.70;95.60;;;;;;5106731;28;20214;-89
2022/07/30 08:11:36;;;;;;;7.25;2.17;;;30.80;94.90;;;;;;5095696;28;20229;-89
2022/07/30 08:14:13;;;;;;;5.60;2.35;;;30.70;94.40;;;;;;5104332;28;20219;-90
2022/07/30 08:20:48;;;;;;;4.55;2.33;;;29.90;93.80;;;;;;5104211;28;20158;-90
2022/07/30 08:23:53;;;;;;;5.38;2.50;;;29.90;95.10;;;;;;5101675;28;20203;-90
2022/07/30 08:26:22;;;;;;;4.53;2.00;;;30.30;94.70;;;;;;5081701;28;20286;-91
2022/07/30 08:29:07;;;;;;;3.75;2.10;;;30.30;93.70;;;;;;5099021;28;20322;-91
2022/07/30 08:31:42;;;;;;;6.47;2.70;;;30.50;92.50;;;;;;5099272;28;20208;-89
2022/07/30 08:34:12;;;;;;;5.22;2.25;;;30.40;93.50;;;;;;5084350;28;20224;-93
2022/07/30 08:36:41;;;;;;;8.35;2.35;;;30.50;93.00;;;;;;5077084;28;20240;-90
2022/07/30 08:39:13;;;;;;;5.97;2.60;;;30.70;92.70;;;;;;5097935;28;20298;-91
2022/07/30 08:41:44;;;;;;;5.13;2.38;;;31.00;92.50;;;;;;5091027;28;20268;-91
2022/07/30 08:44:18;;;;;;;5.30;2.30;;;31.10;92.50;;;;;;5095460;28;20375;-89
2022/07/30 08:46:46;;;;;;;3.70;1.88;;;31.20;93.10;;;;;;5080128;28;20295;-91
2022/07/30 08:49:15;;;;;;;2.63;1.77;;;31.00;92.30;;;;;;5080733;28;20223;-91
2022/07/30 08:51:49;;;;;;;4.63;1.90;;;30.70;91.60;;;;;;5078457;28;20203;-90
2022/07/30 08:54:24;;;;;;;4.88;2.20;;;30.30;92.00;;;;;;5077102;28;20231;-89
2022/07/30 08:56:58;;;;;;;3.60;1.70;;;30.30;91.60;;;;;;5084386;28;20252;-89
2022/07/30 08:59:27;;;;;;;3.85;2.13;;;30.50;91.20;;;;;;5089355;28;20227;-89
2022/07/30 09:02:17;;;;;;;5.20;2.10;;;30.40;90.10;;;;;;5088329;28;20234;-91
2022/07/30 09:04:53;;;;;;;4.97;1.80;;;30.30;90.40;;;;;;5084147;28;20241;-90
2022/07/30 09:07:27;;;;;;;5.32;2.20;;;30.50;91.10;;;;;;5090970;28;20203;-92
2022/07/30 09:09:58;;;;;;;3.90;1.83;;;30.70;90.40;;;;;;5099113;28;20322;-90
2022/07/30 09:12:36;;;;;;;4.35;2.13;;;30.50;90.50;;;;;;5098238;28;20196;-90
2022/07/30 09:15:14;;;;;;;3.72;1.80;;;30.70;90.50;;;;;;5081901;28;20255;-90
2022/07/30 09:17:52;;;;;;;3.10;1.67;;;31.00;90.50;;;;;;5084637;28;20702;-90
2022/07/30 09:20:24;;;;;;;4.15;1.80;;;31.10;89.70;;;;;;5079787;28;20207;-90
2022/07/30 09:23:03;;;;;;;2.78;1.40;;;31.00;87.60;;;;;;5077990;28;20200;-89
2022/07/30 09:25:36;;;;;;;3.13;1.70;;;30.90;86.80;;;;;;5076770;28;20211;-89
2022/07/30 09:28:08;;;;;;;4.10;1.58;;;30.90;85.20;;;;;;5076403;28;20200;-92
2022/07/30 09:30:50;;;;;;;4.40;1.70;;;;;;;;;;5076288;28;20204;-91
2022/07/30 09:33:37;;;;;;;4.75;1.63;;;30.00;87.60;;;;;;5075531;28;20220;-89
2022/07/30 09:36:08;;;;;;;6.63;1.63;;;30.00;87.40;;;;;;5085541;28;20201;-90
2022/07/30 09:38:43;;;;;;;6.50;1.92;;;30.00;87.30;;;;;;5077688;28;20228;-87
2022/07/30 09:41:15;;;;;;;5.15;1.80;;;30.10;87.90;;;;;;5080506;28;20210;-87
2022/07/30 09:44:04;;;;;;;4.68;1.73;;;30.00;87.00;;;;;;5082906;28;20215;-84
2022/07/30 09:46:45;;;;;;;5.93;1.77;;;29.80;86.50;;;;;;5079445;28;20266;-87
2022/07/30 09:49:19;;;;;;;3.67;1.60;;;29.70;89.40;;;;;;5081555;28;20199;-84
2022/07/30 09:51:47;;;;;;;2.28;1.60;;;29.50;85.80;;;;;;5082327;28;20277;-85
2022/07/30 09:54:50;;;;;;;3.78;1.50;;;29.40;84.60;;;;;;5084996;28;20227;-86
2022/07/30 09:57:19;;;;;;;2.70;1.55;;;29.00;84.00;;;;;;5097677;28;20206;-83
2022/07/30 09:59:54;;;;;;;1.98;1.58;;;29.00;85.20;;;;;;5093167;28;20310;-89
2022/07/30 10:02:30;;;;;;;1.88;1.30;;;29.00;83.90;;;;;;5088756;28;20251;-88
2022/07/30 10:05:09;;;;;;;2.80;1.70;;;29.10;82.00;;;;;;5088210;28;20236;-84
2022/07/30 10:07:49;;;;;;;3.88;1.90;;;29.20;83.50;;;;;;5085510;28;20292;-83
2022/07/30 10:10:19;;;;;;;3.15;1.50;;;29.00;84.90;;;;;;5086535;28;20215;-86
2022/07/30 10:12:51;;;;;;;4.28;1.45;;;28.90;84.80;;;;;;5076186;28;20205;-88
2022/07/30 10:15:20;;;;;;;2.40;1.50;;;29.20;83.70;;;;;;5091041;28;20224;-85
2022/07/30 10:17:51;;;;;;;2.72;1.60;;;29.00;84.40;;;;;;5096449;28;20843;-86
2022/07/30 10:20:18;;;;;;;3.13;1.40;;;28.80;83.40;;;;;;5085542;28;20500;-83
2022/07/30 10:22:46;;;;;;;4.13;1.60;;;28.70;83.80;;;;;;5089826;28;20207;-82
2022/07/30 10:25:19;;;;;;;2.90;1.50;;;28.40;84.40;;;;;;5087853;28;20671;-86
2022/07/30 10:27:50;;;;;;;4.40;1.50;;;28.40;86.60;;;;;;5091951;28;20279;-87
2022/07/30 10:30:25;;;;;;;2.70;1.30;;;28.50;84.50;;;;;;5090701;28;20199;-87
2022/07/30 10:32:57;;;;;;;3.40;1.45;;;28.50;82.70;;;;;;5088668;28;20714;-88
2022/07/30 10:35:25;;;;;;;3.38;1.77;;;28.60;81.90;;;;;;5084233;28;20220;-86
2022/07/30 10:38:08;;;;;;;2.15;1.40;;;28.50;83.00;;;;;;5091496;28;20290;-87
2022/07/30 10:40:49;;;;;;;3.20;1.38;;;28.60;81.90;;;;;;5086660;28;20199;-86
2022/07/30 10:43:50;;;;;;;1.95;1.35;;;28.60;80.70;;;;;;5090191;28;20645;-88
2022/07/30 10:46:27;;;;;;;3.17;1.30;;;28.60;77.80;;;;;;5090096;28;20206;-86
2022/07/30 10:49:06;;;;;;;2.90;1.58;;;28.70;76.60;;;;;;5095719;28;20287;-85
2022/07/30 10:51:51;;;;;;;5.15;1.52;;;28.60;79.20;;;;;;5094616;28;20258;-88
2022/07/30 10:54:34;;;;;;;4.28;1.80;;;;;;;;;;5087914;28;20314;-88
2022/07/30 10:57:13;;;;;;;2.53;1.48;;;28.10;79.20;;;;;;5088005;28;20224;-88
2022/07/30 11:00:08;;;;;;;4.90;1.63;;;28.10;80.90;;;;;;5088382;28;20245;-89
2022/07/30 11:02:39;;;;;;;2.42;1.40;;;28.20;79.50;;;;;;5093645;28;20273;-86
2022/07/30 11:05:17;;;;;;;3.35;1.20;;;28.10;80.00;;;;;;5089753;28;20292;-87
2022/07/30 11:08:37;;;;;;;3.17;1.45;;;28.20;79.70;;;;;;5095598;28;20192;-86
2022/07/30 11:11:21;;;;;;;5.40;1.50;;;28.30;82.80;;;;;;5095830;28;20276;-88
2022/07/30 11:14:14;;;;;;;3.97;1.35;;;28.40;82.00;;;;;;5094972;28;20798;-88
2022/07/30 11:16:44;;;;;;;2.17;1.52;;;28.70;81.10;;;;;;5083739;28;20968;-88
2022/07/30 11:19:19;;;;;;;2.65;1.27;;;28.50;79.30;;;;;;5092155;28;20872;-87
2022/07/30 11:22:27;;;;;;;3.17;1.40;;;28.50;78.90;;;;;;5086581;28;20957;-87
2022/07/30 11:24:56;;;;;;;1.92;1.17;;;28.40;78.70;;;;;;5083270;28;20266;-84
2022/07/30 11:27:45;;;;;;;2.13;1.50;;;28.50;78.90;;;;;;5090378;28;20353;-85
2022/07/30 11:30:19;;;;;;;2.13;1.30;;;28.40;79.60;;;;;;5079131;28;20239;-83
2022/07/30 11:32:54;;;;;;;3.38;1.45;;;28.50;79.30;;;;;;5076618;28;20273;-84
2022/07/30 11:35:31;;;;;;;3.28;1.13;;;28.40;79.30;;;;;;5078443;28;20228;-85
2022/07/30 11:38:04;;;;;;;2.25;1.27;;;28.50;79.20;;;;;;5077951;28;20214;-87
2022/07/30 11:40:40;;;;;;;2.13;1.10;;;28.50;80.30;;;;;;5086437;28;20200;-88
2022/07/30 11:43:28;;;;;;;3.78;1.27;;;28.50;80.20;;;;;;5084226;28;20287;-86
2022/07/30 11:46:13;;;;;;;2.80;1.17;;;28.50;80.20;;;;;;5088647;28;20242;-85
2022/07/30 11:48:56;;;;;;;3.75;1.33;;;28.50;79.90;;;;;;5090904;28;20224;-84
2022/07/30 11:51:24;;;;;;;7.80;1.48;;;28.70;79.30;;;;;;5086477;28;20708;-83
2022/07/30 11:54:06;;;;;;;2.53;1.50;;;28.80;80.60;;;;;;5091191;28;20199;-88
2022/07/30 11:56:36;;;;;;;2.72;1.50;;;28.90;80.30;;;;;;5098861;28;20226;-89
2022/07/30 11:59:09;;;;;;;1.70;1.10;;;29.00;80.80;;;;;;5095023;28;20235;-92
2022/07/30 12:01:37;;;;;;;1.83;1.42;;;29.00;81.40;;;;;;5088277;28;20234;-90
2022/07/30 12:04:07;;;;;;;2.08;1.20;;;29.00;80.70;;;;;;5092516;28;20212;-90
2022/07/30 12:06:43;;;;;;;2.50;1.30;;;28.90;80.40;;;;;;5095882;28;20897;-90
2022/07/30 12:09:27;;;;;;;3.67;1.30;;;28.80;80.50;;;;;;5091100;28;20670;-91
2022/07/30 12:11:59;;;;;;;2.80;1.73;;;28.80;80.70;;;;;;5089095;28;20214;-88
2022/07/30 12:14:38;;;;;;;3.15;1.52;;;28.70;81.50;;;;;;5085644;28;20224;-89
2022/07/30 12:17:06;;;;;;;4.47;1.50;;;28.70;81.90;;;;;;5084613;28;20230;-87
2022/07/30 12:19:47;;;;;;;2.42;1.52;;;28.70;82.10;;;;;;5090118;28;20757;-86
2022/07/30 12:22:14;;;;;;;2.22;1.50;;;28.70;83.10;;;;;;5088644;28;20200;-85
2022/07/30 12:24:41;;;;;;;2.72;1.75;;;28.50;83.40;;;;;;5087212;28;20208;-88
2022/07/30 12:27:08;;;;;;;3.38;1.70;;;28.40;84.50;;;;;;5085608;28;20211;-87
2022/07/30 12:29:36;;;;;;;2.95;1.55;;;28.50;84.00;;;;;;5089795;28;20202;-86
2022/07/30 12:32:04;;;;;;;4.25;1.85;;;28.70;83.60;;;;;;5091120;28;20304;-85
2022/07/30 12:34:32;;;;;;;2.47;1.60;;;28.90;83.30;;;;;;5096524;28;20315;-86
2022/07/30 12:37:09;;;;;;;4.03;1.73;;;29.00;83.60;;;;;;5091714;28;20200;-86
2022/07/30 12:39:36;;;;;;;3.88;1.70;;;29.20;82.60;;;;;;5094655;28;20199;-87
2022/07/30 12:42:06;;;;;;;3.15;1.65;;;29.40;82.70;;;;;;5085618;28;20215;-84
2022/07/30 12:44:37;;;;;;;4.05;1.63;;;29.50;83.00;;;;;;5094985;28;20200;-87
2022/07/30 12:47:17;;;;;;;5.85;1.42;;;29.50;82.70;;;;;;5088546;28;20215;-85
2022/07/30 12:49:45;;;;;;;3.08;1.73;;;29.50;83.20;;;;;;5090570;28;20716;-84
2022/07/30 12:52:21;;;;;;;5.32;1.65;;;29.60;83.70;;;;;;5091809;28;20200;-86
2022/07/30 12:55:01;;;;;;;4.43;1.60;;;29.70;83.80;;;;;;5093860;28;20223;-85
2022/07/30 12:57:54;;;;;;;3.10;1.60;;;29.90;82.70;;;;;;5083215;28;20212;-87
2022/07/30 13:00:23;;;;;;;2.92;1.63;;;29.90;82.80;;;;;;5098014;28;20241;-89
2022/07/30 13:02:51;;;;;;;4.25;1.65;;;29.90;82.80;;;;;;5107001;28;20203;-88
2022/07/30 13:05:18;;;;;;;2.92;1.70;;;29.90;82.50;;;;;;5094805;28;20291;-86
2022/07/30 13:07:58;;;;;;;3.60;2.05;;;30.10;82.90;;;;;;5108650;28;20231;-85
2022/07/30 13:10:28;;;;;;;3.75;1.45;;;30.20;82.60;;;;;;5105015;28;20265;-89
2022/07/30 13:12:58;;;;;;;3.40;1.50;;;30.20;82.20;;;;;;5114798;28;20184;-88
2022/07/30 13:15:27;;;;;;;4.28;1.77;;;30.30;81.80;;;;;;5114995;28;20283;-87
2022/07/30 13:18:17;;;;;;;2.58;1.60;;;30.40;81.80;;;;;;5099277;28;20211;-87